Strona główna
METAR-TAF:

METAR-TAF

Lotnisko :

Baker Municipal Airport

Baker, Montana, Stany Zjednoczone

Szerokość geograficzna: 46-20-52N, Długość geograficzna: 104-15-27W, wysokość: 905 m

Aktualna obserwacja pogody

Raport powstał 1 godzina i 7 minut temu, godzina 16:51 UTC
Wiatr 20 kt od zachód w porywach dochodzący do 28 kt
Temperatura 1°C
Wilgotność 86%
Ciśnienie 1010 hPa
Widzialność: 0.4 km
Zachmurzenie całkowite na wysokości 400 ft
śnieg, mgła

METAR: KBHK 111651Z AUTO 28020G28KT 1/4SM SN FG OVC004 01/M01 A2982 RMK AO2 PK WND 28028/1648 SLP112 P0001 T00061011

czas: 11:58 (17:58 UTC)


TAF: brakujący

Obserwacja i prognoza pogody dla ponad 4000 lotnisk (raport METAR i TAF).

Dostępne stacje oznaczono żółtymi i czerwonymi punktami na mapie.

Najedź kursorem aby zobaczyć nazwę stacji.

Kliknij aby zobaczyć obserwacje i prognozy pogody.

Aby zmienić mapę: kliknij na zielony przycisk z czarnym krzyżykiem, aby powiększyć; na zielony przycisk z myślnikiem, aby pomniejszyć; na zielone strzałki, aby przejść do map sąsiednich.


METAR-TAF: